createdAt,value
2022-12-12T00:01:30.219Z,-3.13
2022-12-12T00:03:31.794Z,-3.18
2022-12-12T00:05:33.395Z,-3.19
2022-12-12T00:07:34.892Z,-3.23
2022-12-12T00:09:36.403Z,-3.25
2022-12-12T00:11:37.897Z,-3.28
2022-12-12T00:13:40.063Z,-3.30
2022-12-12T00:15:41.564Z,-3.33
2022-12-12T00:17:43.058Z,-3.36
2022-12-12T00:19:44.522Z,-3.38
2022-12-12T00:21:46.027Z,-3.40
2022-12-12T00:23:47.829Z,-3.41
2022-12-12T00:25:58.481Z,-3.44
2022-12-12T00:28:00.504Z,-3.46
2022-12-12T00:30:02.257Z,-3.49
2022-12-12T00:32:03.870Z,-3.55
2022-12-12T00:34:05.442Z,-3.58
2022-12-12T00:36:07.458Z,-3.59
2022-12-12T00:38:09.215Z,-3.61
2022-12-12T00:40:11.476Z,-3.65
2022-12-12T00:42:13.085Z,-3.72
2022-12-12T00:44:14.521Z,-3.74
2022-12-12T00:46:19.158Z,-3.73
2022-12-12T00:48:20.988Z,-3.73
2022-12-12T00:50:22.472Z,-3.74
2022-12-12T00:52:23.945Z,-3.74
2022-12-12T00:54:25.410Z,-3.74
2022-12-12T00:56:28.963Z,-3.75
2022-12-12T00:58:31.151Z,-3.76
2022-12-12T01:00:33.446Z,-3.79
2022-12-12T01:02:35.490Z,-3.80
2022-12-12T01:04:36.964Z,-3.82
2022-12-12T01:06:38.547Z,-3.83
2022-12-12T01:08:41.206Z,-3.84
2022-12-12T01:10:43.583Z,-3.83
2022-12-12T01:12:45.268Z,-3.84
2022-12-12T01:14:47.466Z,-3.84
2022-12-12T01:16:48.955Z,-3.87
2022-12-12T01:18:50.806Z,-3.92
2022-12-12T01:20:52.848Z,-3.94
2022-12-12T01:22:54.845Z,-3.94
2022-12-12T01:24:57.000Z,-3.97
2022-12-12T01:26:58.504Z,-3.99
2022-12-12T01:28:59.978Z,-4.03
2022-12-12T01:31:01.967Z,-4.05
2022-12-12T01:33:03.853Z,-4.06
2022-12-12T01:35:08.192Z,-4.08
2022-12-12T01:37:09.682Z,-4.11
2022-12-12T01:39:11.234Z,-4.12
2022-12-12T01:41:13.701Z,-4.14
2022-12-12T01:43:16.925Z,-4.19
2022-12-12T01:45:56.032Z,-4.22
2022-12-12T01:48:03.456Z,-4.20
2022-12-12T01:50:09.430Z,-4.21
2022-12-12T01:52:15.312Z,-4.23
2022-12-12T01:54:21.955Z,-4.26
2022-12-12T01:56:23.769Z,-4.26
2022-12-12T01:58:25.966Z,-4.27
2022-12-12T02:00:27.556Z,-4.28
2022-12-12T02:02:29.942Z,-4.35
2022-12-12T02:04:31.913Z,-4.38
2022-12-12T02:06:33.952Z,-4.41
2022-12-12T02:08:37.203Z,-4.41
2022-12-12T02:10:38.883Z,-4.40
2022-12-12T02:12:40.394Z,-4.42
2022-12-12T02:14:48.570Z,-4.43
2022-12-12T02:16:57.395Z,-4.45
2022-12-12T02:19:04.732Z,-4.51
2022-12-12T02:21:15.452Z,-4.55
2022-12-12T02:23:30.238Z,-4.59
2022-12-12T02:26:01.079Z,-4.59
2022-12-12T02:28:17.760Z,-4.60
2022-12-12T02:30:22.933Z,-4.61
2022-12-12T02:32:46.355Z,-4.60
2022-12-12T02:35:15.232Z,-4.60
2022-12-12T02:37:25.995Z,-4.62
2022-12-12T02:39:51.811Z,-4.62
2022-12-12T02:42:00.454Z,-4.62
2022-12-12T02:44:18.707Z,-4.63
2022-12-12T02:46:34.365Z,-4.65
2022-12-12T02:48:55.494Z,-4.68
2022-12-12T02:51:00.744Z,-4.71
2022-12-12T02:53:02.189Z,-4.73
2022-12-12T02:55:05.036Z,-4.74
2022-12-12T02:57:24.001Z,-4.73
2022-12-12T02:59:28.175Z,-4.76
2022-12-12T03:01:54.081Z,-4.76
2022-12-12T03:04:24.779Z,-4.78
2022-12-12T03:06:58.702Z,-4.79
2022-12-12T03:09:24.729Z,-4.80
2022-12-12T03:11:38.091Z,-4.82
2022-12-12T03:13:52.190Z,-4.83
2022-12-12T03:15:56.607Z,-4.84
2022-12-12T03:18:23.049Z,-4.83
2022-12-12T03:20:45.188Z,-4.85
2022-12-12T03:22:55.043Z,-4.90
2022-12-12T03:25:15.526Z,-4.93
2022-12-12T03:27:23.895Z,-4.95
2022-12-12T03:29:34.220Z,-4.96
2022-12-12T03:31:39.778Z,-4.98
2022-12-12T03:33:48.807Z,-4.96
2022-12-12T03:36:10.152Z,-4.96
2022-12-12T03:38:18.918Z,-4.97
2022-12-12T03:40:40.519Z,-5.01
2022-12-12T03:42:50.643Z,-5.02
2022-12-12T03:45:07.592Z,-5.03
2022-12-12T03:47:19.078Z,-5.01
2022-12-12T03:49:27.101Z,-5.01
2022-12-12T03:51:32.014Z,-5.00
2022-12-12T03:53:33.376Z,-4.99
2022-12-12T03:55:34.775Z,-4.97
2022-12-12T03:57:42.369Z,-4.95
2022-12-12T04:00:08.632Z,-4.94
2022-12-12T04:02:21.588Z,-4.93
2022-12-12T04:04:39.013Z,-4.94
2022-12-12T04:06:53.534Z,-4.95
2022-12-12T04:09:19.353Z,-4.96
2022-12-12T04:11:40.375Z,-5.00
2022-12-12T04:14:07.665Z,-5.02
2022-12-12T04:16:14.296Z,-5.04
2022-12-12T04:18:37.589Z,-5.10
2022-12-12T04:21:06.274Z,-5.15
2022-12-12T04:23:56.373Z,-5.16
2022-12-12T04:26:19.277Z,-5.18
2022-12-12T04:28:20.798Z,-5.18
2022-12-12T04:30:22.284Z,-5.19
2022-12-12T04:32:50.587Z,-5.19
2022-12-12T04:35:02.126Z,-5.22
2022-12-12T04:37:06.577Z,-5.21
2022-12-12T04:39:10.085Z,-5.22
2022-12-12T04:41:13.266Z,-5.24
2022-12-12T04:43:22.294Z,-5.25
2022-12-12T04:45:29.199Z,-5.25
2022-12-12T04:47:32.004Z,-5.26
2022-12-12T04:49:36.381Z,-5.28
2022-12-12T04:51:43.517Z,-5.29
2022-12-12T04:53:50.751Z,-5.32
2022-12-12T04:56:00.586Z,-5.32
2022-12-12T04:58:03.210Z,-5.32
2022-12-12T05:00:04.956Z,-5.34
2022-12-12T05:02:18.158Z,-5.35
2022-12-12T05:04:27.605Z,-5.37
2022-12-12T05:06:39.378Z,-5.37
2022-12-12T05:08:53.708Z,-5.37
2022-12-12T05:10:59.582Z,-5.37
2022-12-12T05:13:01.290Z,-5.37
2022-12-12T05:15:02.901Z,-5.36
2022-12-12T05:17:11.447Z,-5.37
2022-12-12T05:19:12.977Z,-5.40
2022-12-12T05:21:15.137Z,-5.42
2022-12-12T05:23:17.328Z,-5.43
2022-12-12T05:25:18.768Z,-5.43
2022-12-12T05:27:20.222Z,-5.44
2022-12-12T05:29:21.660Z,-5.44
2022-12-12T05:31:23.923Z,-5.45
2022-12-12T05:33:25.394Z,-5.47
2022-12-12T05:35:27.400Z,-5.49
2022-12-12T05:37:28.832Z,-5.48
2022-12-12T05:39:30.292Z,-5.51
2022-12-12T05:41:31.795Z,-5.52
2022-12-12T05:43:33.573Z,-5.57
2022-12-12T05:45:35.218Z,-5.59
2022-12-12T05:47:36.721Z,-5.60
2022-12-12T05:49:38.189Z,-5.61
2022-12-12T05:51:39.879Z,-5.62
2022-12-12T05:53:43.237Z,-5.63
2022-12-12T05:55:45.133Z,-5.65
2022-12-12T05:57:46.557Z,-5.68
2022-12-12T05:59:48.847Z,-5.69
2022-12-12T06:01:50.311Z,-5.71
2022-12-12T06:03:51.756Z,-5.73
2022-12-12T06:05:53.302Z,-5.77
2022-12-12T06:07:54.768Z,-5.84
2022-12-12T06:09:56.226Z,-5.90
2022-12-12T06:11:57.789Z,-5.92
2022-12-12T06:13:59.248Z,-5.93
2022-12-12T06:16:09.272Z,-5.91
2022-12-12T06:18:12.199Z,-5.89
2022-12-12T06:20:17.123Z,-5.86
2022-12-12T06:22:18.853Z,-5.86
2022-12-12T06:24:20.294Z,-5.86
2022-12-12T06:26:22.188Z,-5.88
2022-12-12T06:28:23.711Z,-5.87
2022-12-12T06:30:25.228Z,-5.90
2022-12-12T06:32:26.697Z,-5.93
2022-12-12T06:34:28.180Z,-5.92
2022-12-12T06:36:30.237Z,-5.92
2022-12-12T06:38:32.456Z,-5.92
2022-12-12T06:40:34.024Z,-5.91
2022-12-12T06:42:35.505Z,-5.91
2022-12-12T06:44:36.928Z,-5.90
2022-12-12T06:46:39.019Z,-5.92
2022-12-12T06:48:40.676Z,-5.94
2022-12-12T06:50:44.213Z,-5.96
2022-12-12T06:52:45.641Z,-5.95
2022-12-12T06:54:47.241Z,-5.98
2022-12-12T06:56:49.482Z,-5.99
2022-12-12T06:58:51.710Z,-6.01
2022-12-12T07:00:53.808Z,-6.03
2022-12-12T07:02:55.277Z,-6.00
2022-12-12T07:04:57.368Z,-6.00
2022-12-12T07:06:58.843Z,-5.98
2022-12-12T07:09:00.525Z,-5.97
2022-12-12T07:11:07.129Z,-5.95
2022-12-12T07:13:08.597Z,-5.96
2022-12-12T07:15:10.706Z,-5.98
2022-12-12T07:17:12.343Z,-5.99
2022-12-12T07:19:13.792Z,-5.98
2022-12-12T07:21:18.208Z,-5.99
2022-12-12T07:23:20.082Z,-5.99
2022-12-12T07:25:21.545Z,-5.99
2022-12-12T07:27:23.102Z,-5.97
2022-12-12T07:29:24.618Z,-5.96
2022-12-12T07:31:26.722Z,-5.94
2022-12-12T07:33:38.253Z,-5.93
2022-12-12T07:35:44.999Z,-5.93
2022-12-12T07:37:47.348Z,-5.94
2022-12-12T07:39:48.769Z,-5.93
2022-12-12T07:41:50.288Z,-5.90
2022-12-12T07:43:52.560Z,-5.89
2022-12-12T07:45:54.540Z,-5.88
2022-12-12T07:47:56.011Z,-5.88
2022-12-12T07:49:57.580Z,-5.86
2022-12-12T07:51:59.029Z,-5.85
2022-12-12T07:54:00.712Z,-5.81
2022-12-12T07:56:06.451Z,-5.77
2022-12-12T07:58:07.974Z,-5.73
2022-12-12T08:00:13.243Z,-5.71
2022-12-12T08:02:14.735Z,-5.71
2022-12-12T08:04:16.224Z,-5.72
2022-12-12T08:06:19.059Z,-5.70
2022-12-12T08:08:21.033Z,-5.68
2022-12-12T08:10:22.765Z,-5.64
2022-12-12T08:12:24.223Z,-5.58
2022-12-12T08:14:26.313Z,-5.55
2022-12-12T08:16:29.875Z,-5.49
2022-12-12T08:18:32.023Z,-5.44
2022-12-12T08:20:33.548Z,-5.39
2022-12-12T08:22:35.111Z,-5.33
2022-12-12T08:24:36.594Z,-5.29
2022-12-12T08:26:38.107Z,-5.25
2022-12-12T08:28:41.469Z,-5.20
2022-12-12T08:30:42.979Z,-5.13
2022-12-12T08:32:44.458Z,-5.09
2022-12-12T08:34:47.186Z,-5.06
2022-12-12T08:36:49.266Z,-5.03
2022-12-12T08:38:51.732Z,-4.99
2022-12-12T08:40:53.185Z,-4.94
2022-12-12T08:42:54.608Z,-4.88
2022-12-12T08:44:56.049Z,-4.83
2022-12-12T08:46:57.620Z,-4.79
2022-12-12T08:48:59.118Z,-4.75
2022-12-12T08:51:00.813Z,-4.69
2022-12-12T08:53:02.294Z,-4.66
2022-12-12T08:55:04.152Z,-4.62
2022-12-12T08:57:05.623Z,-4.56
2022-12-12T08:59:07.108Z,-4.53
2022-12-12T09:01:16.434Z,-4.48
2022-12-12T09:03:18.511Z,-4.44
2022-12-12T09:05:19.971Z,-4.40
2022-12-12T09:07:21.893Z,-4.34
2022-12-12T09:09:23.398Z,-4.29
2022-12-12T09:11:25.230Z,-4.25
2022-12-12T09:13:26.723Z,-4.20
2022-12-12T09:15:28.181Z,-4.15
2022-12-12T09:17:29.656Z,-4.09
2022-12-12T09:19:31.154Z,-4.05
2022-12-12T09:21:32.643Z,-4.01
2022-12-12T09:23:34.616Z,-3.96
2022-12-12T09:25:38.835Z,-3.91
2022-12-12T09:27:43.926Z,-3.84
2022-12-12T09:29:45.578Z,-3.79
2022-12-12T09:31:47.129Z,-3.74
2022-12-12T09:33:48.992Z,-3.68
2022-12-12T09:35:58.147Z,-3.63
2022-12-12T09:37:59.625Z,-3.60
2022-12-12T09:40:01.379Z,-3.56
2022-12-12T09:42:27.505Z,-3.52
2022-12-12T09:44:31.035Z,-3.49
2022-12-12T09:46:44.142Z,-3.42
2022-12-12T09:48:46.709Z,-3.36
2022-12-12T09:50:49.809Z,-3.30
2022-12-12T09:52:51.712Z,-3.24
2022-12-12T09:54:54.098Z,-3.18
2022-12-12T09:57:04.583Z,-3.13
2022-12-12T09:59:18.762Z,-3.07
2022-12-12T10:01:27.164Z,-3.03
2022-12-12T10:03:55.699Z,-2.98
2022-12-12T10:06:20.616Z,-2.93
2022-12-12T10:08:25.564Z,-2.88
2022-12-12T10:10:33.271Z,-2.85
2022-12-12T10:12:34.893Z,-2.79
2022-12-12T10:14:59.235Z,-2.74
2022-12-12T10:17:03.161Z,-2.71
2022-12-12T10:19:14.446Z,-2.65
2022-12-12T10:21:20.904Z,-2.62
2022-12-12T10:23:32.578Z,-2.57
2022-12-12T10:25:52.322Z,-2.50
2022-12-12T10:28:12.941Z,-2.43
2022-12-12T10:30:17.955Z,-2.39
2022-12-12T10:32:54.807Z,-2.32
2022-12-12T10:35:24.539Z,-2.24
2022-12-12T10:37:57.326Z,-2.17
2022-12-12T10:40:01.744Z,-2.09
2022-12-12T10:42:07.964Z,-2.02
2022-12-12T10:44:27.674Z,-1.92
2022-12-12T10:46:41.481Z,-1.83
2022-12-12T10:48:44.317Z,-1.77
2022-12-12T10:50:56.195Z,-1.66
2022-12-12T10:52:57.637Z,-1.56
2022-12-12T10:55:00.539Z,-1.37
2022-12-12T10:57:06.671Z,-0.76
2022-12-12T10:59:21.779Z,0.34
2022-12-12T11:02:07.854Z,1.47
2022-12-12T11:03:54.911Z,2.67
2022-12-12T11:05:57.580Z,3.51
2022-12-12T11:08:17.985Z,4.37
2022-12-12T11:10:26.867Z,5.11
2022-12-12T11:12:34.818Z,5.79
2022-12-12T11:14:39.642Z,6.28
2022-12-12T11:16:43.753Z,6.70
2022-12-12T11:19:10.995Z,7.21
2022-12-12T11:21:13.966Z,7.60
2022-12-12T11:23:25.425Z,7.90
2022-12-12T11:25:32.324Z,8.11
2022-12-12T11:27:41.340Z,8.07
2022-12-12T11:29:46.707Z,7.89
2022-12-12T11:31:48.241Z,7.55
2022-12-12T11:33:57.036Z,7.02
2022-12-12T11:36:01.805Z,6.18
2022-12-12T11:38:16.440Z,5.36
2022-12-12T11:40:30.175Z,4.67
2022-12-12T11:42:34.082Z,4.17
2022-12-12T11:44:37.649Z,3.79
2022-12-12T11:46:39.136Z,3.38
2022-12-12T11:48:44.646Z,2.89
2022-12-12T11:50:46.441Z,2.52
2022-12-12T11:52:49.347Z,2.17
2022-12-12T11:54:52.699Z,1.85
2022-12-12T11:57:02.124Z,1.73
2022-12-12T11:59:24.681Z,1.65
2022-12-12T12:01:45.234Z,1.63
2022-12-12T12:04:15.978Z,1.68
2022-12-12T12:06:51.397Z,1.83
2022-12-12T12:08:59.040Z,1.93
2022-12-12T12:11:12.386Z,1.83
2022-12-12T12:13:38.100Z,1.63
2022-12-12T12:15:48.826Z,1.47
2022-12-12T12:18:08.973Z,1.37
2022-12-12T12:20:29.909Z,1.21
2022-12-12T12:22:48.410Z,1.11
2022-12-12T12:25:13.409Z,1.00
2022-12-12T12:27:27.617Z,0.90
2022-12-12T12:29:49.881Z,0.79
2022-12-12T12:32:03.227Z,0.72
2022-12-12T12:34:18.286Z,0.69
2022-12-12T12:36:29.421Z,0.67
2022-12-12T12:38:55.583Z,0.63
2022-12-12T12:41:37.740Z,0.60
2022-12-12T12:44:04.150Z,0.56
2022-12-12T12:46:10.815Z,0.54
2022-12-12T12:48:18.071Z,0.50
2022-12-12T12:50:38.330Z,0.51
2022-12-12T12:52:46.527Z,0.51
2022-12-12T12:54:48.969Z,0.45
2022-12-12T12:57:02.757Z,0.41
2022-12-12T12:59:18.262Z,0.37
2022-12-12T13:01:37.221Z,0.35
2022-12-12T13:03:47.198Z,0.39
2022-12-12T13:05:55.439Z,0.37
2022-12-12T13:08:50.921Z,0.35
2022-12-12T13:11:02.776Z,0.38
2022-12-12T13:13:14.951Z,0.40
2022-12-12T13:15:36.904Z,0.36
2022-12-12T13:18:01.261Z,0.27
2022-12-12T13:20:03.878Z,0.23
2022-12-12T13:22:13.868Z,0.23
2022-12-12T13:24:25.481Z,0.23
2022-12-12T13:26:39.171Z,0.24
2022-12-12T13:28:57.498Z,0.25
2022-12-12T13:31:31.724Z,0.25
2022-12-12T13:33:48.334Z,0.23
2022-12-12T13:35:54.615Z,0.23
2022-12-12T13:37:56.489Z,0.24
2022-12-12T13:40:04.834Z,0.25
2022-12-12T13:42:11.142Z,0.24
2022-12-12T13:44:33.369Z,0.22
2022-12-12T13:46:37.599Z,0.19
2022-12-12T13:48:47.081Z,0.18
2022-12-12T13:51:27.399Z,0.18
2022-12-12T13:53:28.900Z,0.16
2022-12-12T13:55:30.357Z,0.14
2022-12-12T13:57:32.352Z,0.12
2022-12-12T13:59:53.722Z,0.10
2022-12-12T14:02:03.196Z,0.08
2022-12-12T14:04:05.153Z,-0.02
2022-12-12T14:06:12.229Z,-0.06
2022-12-12T14:08:13.727Z,-0.10
2022-12-12T14:10:23.261Z,-0.10
2022-12-12T14:12:33.325Z,-0.10
2022-12-12T14:14:36.832Z,-0.11
2022-12-12T14:16:38.698Z,-0.14
2022-12-12T14:18:56.556Z,-0.17
2022-12-12T14:21:06.648Z,-0.21
2022-12-12T14:23:20.211Z,-0.24
2022-12-12T14:25:33.739Z,-0.25
2022-12-12T14:27:50.106Z,-0.30
2022-12-12T14:29:51.553Z,-0.34
2022-12-12T14:31:56.199Z,-0.37
2022-12-12T14:34:04.655Z,-0.40
2022-12-12T14:36:28.349Z,-0.45
2022-12-12T14:38:35.568Z,-0.52
2022-12-12T14:40:43.305Z,-0.54
2022-12-12T14:43:18.859Z,-0.57
2022-12-12T14:45:27.569Z,-0.64
2022-12-12T14:47:28.992Z,-0.67
2022-12-12T14:49:30.439Z,-0.72
2022-12-12T14:51:35.928Z,-0.75
2022-12-12T14:53:37.329Z,-0.80
2022-12-12T14:55:50.961Z,-0.87
2022-12-12T14:57:52.550Z,-0.91
2022-12-12T14:59:54.327Z,-0.94
2022-12-12T15:02:00.674Z,-0.99
2022-12-12T15:04:05.648Z,-1.02
2022-12-12T15:06:38.262Z,-1.03
2022-12-12T15:08:41.856Z,-1.08
2022-12-12T15:10:43.309Z,-1.12
2022-12-12T15:12:45.001Z,-1.18
2022-12-12T15:14:46.422Z,-1.23
2022-12-12T15:17:13.663Z,-1.29
2022-12-12T15:19:19.428Z,-1.37
2022-12-12T15:21:20.973Z,-1.43
2022-12-12T15:23:23.304Z,-1.48
2022-12-12T15:25:30.792Z,-1.48
2022-12-12T15:27:47.050Z,-1.50
2022-12-12T15:29:50.904Z,-1.57
2022-12-12T15:32:02.884Z,-1.60
2022-12-12T15:34:04.456Z,-1.62
2022-12-12T15:36:17.362Z,-1.67
2022-12-12T15:38:19.138Z,-1.71
2022-12-12T15:40:32.743Z,-1.75
2022-12-12T15:42:34.462Z,-1.80
2022-12-12T15:44:36.544Z,-1.82
2022-12-12T15:46:38.101Z,-1.84
2022-12-12T15:48:44.020Z,-1.86
2022-12-12T15:50:45.910Z,-1.93
2022-12-12T15:53:02.515Z,-1.97
2022-12-12T15:55:05.182Z,-2.01
2022-12-12T15:57:06.711Z,-2.09
2022-12-12T15:59:08.122Z,-2.13
2022-12-12T16:01:20.334Z,-2.14
2022-12-12T16:03:23.611Z,-2.18
2022-12-12T16:05:30.331Z,-2.21
2022-12-12T16:07:36.560Z,-2.26
2022-12-12T16:09:38.062Z,-2.29
2022-12-12T16:11:55.389Z,-2.33
2022-12-12T16:13:57.147Z,-2.35
2022-12-12T16:16:02.323Z,-2.36
2022-12-12T16:18:07.798Z,-2.40
2022-12-12T16:20:14.479Z,-2.42
2022-12-12T16:22:39.518Z,-2.46
2022-12-12T16:24:46.451Z,-2.51
2022-12-12T16:26:48.136Z,-2.61
2022-12-12T16:28:49.573Z,-2.65
2022-12-12T16:30:57.657Z,-2.73
2022-12-12T16:33:30.544Z,-2.74
2022-12-12T16:35:32.003Z,-2.73
2022-12-12T16:37:33.658Z,-2.73
2022-12-12T16:39:36.058Z,-2.74
2022-12-12T16:41:37.690Z,-2.76
2022-12-12T16:43:39.781Z,-2.79
2022-12-12T16:45:42.258Z,-2.80
2022-12-12T16:47:43.725Z,-2.79
2022-12-12T16:49:45.629Z,-2.81
2022-12-12T16:51:47.160Z,-2.83
2022-12-12T16:53:48.911Z,-2.87
2022-12-12T16:55:51.764Z,-2.90
2022-12-12T16:57:53.194Z,-2.94
2022-12-12T16:59:54.645Z,-2.96
2022-12-12T17:01:56.106Z,-2.99
2022-12-12T17:03:57.657Z,-3.02
2022-12-12T17:06:00.076Z,-3.08
2022-12-12T17:08:02.350Z,-3.10
2022-12-12T17:10:04.729Z,-3.10
2022-12-12T17:12:08.798Z,-3.11
2022-12-12T17:14:24.652Z,-3.12
2022-12-12T17:16:28.156Z,-3.14
2022-12-12T17:18:29.726Z,-3.19
2022-12-12T17:20:37.455Z,-3.25
2022-12-12T17:22:40.680Z,-3.26
2022-12-12T17:24:42.197Z,-3.27
2022-12-12T17:26:43.724Z,-3.28
2022-12-12T17:28:45.161Z,-3.30
2022-12-12T17:30:49.948Z,-3.33
2022-12-12T17:35:11.003Z,-3.40
2022-12-12T17:37:12.518Z,-3.43
2022-12-12T17:39:14.026Z,-3.46
2022-12-12T17:41:15.596Z,-3.48
2022-12-12T17:43:17.077Z,-3.52
2022-12-12T17:45:19.442Z,-3.53
2022-12-12T17:47:20.875Z,-3.55
2022-12-12T17:49:22.325Z,-3.54
2022-12-12T17:51:24.342Z,-3.55
2022-12-12T17:53:26.801Z,-3.59
2022-12-12T17:55:53.472Z,-3.62
2022-12-12T17:57:49.689Z,-3.66
2022-12-12T17:59:51.489Z,-3.68
2022-12-12T18:01:53.802Z,-3.71
2022-12-12T18:03:55.896Z,-3.72
2022-12-12T18:05:59.949Z,-3.72
2022-12-12T18:08:01.590Z,-3.73
2022-12-12T18:10:04.011Z,-3.72
2022-12-12T18:12:05.995Z,-3.73
2022-12-12T18:14:08.230Z,-3.74
2022-12-12T18:16:12.751Z,-3.77
2022-12-12T18:18:14.410Z,-3.78
2022-12-12T18:20:16.285Z,-3.81
2022-12-12T18:22:17.962Z,-3.83
2022-12-12T18:24:21.321Z,-3.84
2022-12-12T18:26:24.123Z,-3.86
2022-12-12T18:28:25.545Z,-3.87
2022-12-12T18:30:27.074Z,-3.89
2022-12-12T18:32:28.821Z,-3.91
2022-12-12T18:34:30.386Z,-3.91
2022-12-12T18:36:32.475Z,-3.93
2022-12-12T18:38:35.324Z,-3.96
2022-12-12T18:40:39.259Z,-3.98
2022-12-12T18:42:40.709Z,-3.99
2022-12-12T18:44:42.146Z,-4.02
2022-12-12T18:46:44.069Z,-4.02
2022-12-12T18:48:47.236Z,-4.04
2022-12-12T18:50:48.750Z,-4.06
2022-12-12T18:52:50.177Z,-4.08
2022-12-12T18:54:52.186Z,-4.09
2022-12-12T18:56:53.638Z,-4.11
2022-12-12T18:58:57.275Z,-4.14
2022-12-12T19:01:07.092Z,-4.17
2022-12-12T19:03:09.094Z,-4.20
2022-12-12T19:05:13.326Z,-4.23
2022-12-12T19:07:15.164Z,-4.26
2022-12-12T19:09:18.480Z,-4.28
2022-12-12T19:11:21.214Z,-4.30
2022-12-12T19:13:22.709Z,-4.30
2022-12-12T19:15:24.168Z,-4.32
2022-12-12T19:17:26.899Z,-4.35
2022-12-12T19:19:28.405Z,-4.36
2022-12-12T19:21:29.980Z,-4.39
2022-12-12T19:23:31.815Z,-4.38
2022-12-12T19:25:39.194Z,-4.40
2022-12-12T19:27:44.697Z,-4.42
2022-12-12T19:29:46.162Z,-4.43
2022-12-12T19:31:48.150Z,-4.45
2022-12-12T19:33:49.610Z,-4.46
2022-12-12T19:35:51.112Z,-4.49
2022-12-12T19:37:52.624Z,-4.52
2022-12-12T19:39:54.348Z,-4.53
2022-12-12T19:41:55.807Z,-4.56
2022-12-12T19:44:01.505Z,-4.58
2022-12-12T19:46:09.632Z,-4.58
2022-12-12T19:48:11.533Z,-4.61
2022-12-12T19:50:13.501Z,-4.65
2022-12-12T19:52:15.230Z,-4.65
2022-12-12T19:54:19.576Z,-4.64
2022-12-12T19:56:23.788Z,-4.68
2022-12-12T19:58:25.286Z,-4.68
2022-12-12T20:00:26.802Z,-4.70
2022-12-12T20:02:28.252Z,-4.71
2022-12-12T20:04:30.206Z,-4.76
2022-12-12T20:06:40.853Z,-4.77
2022-12-12T20:08:43.074Z,-4.83
2022-12-12T20:10:44.553Z,-4.84
2022-12-12T20:12:56.095Z,-4.85
2022-12-12T20:14:59.816Z,-4.87
2022-12-12T20:17:03.174Z,-4.89
2022-12-12T20:19:04.863Z,-4.91
2022-12-12T20:21:06.781Z,-4.90
2022-12-12T20:23:08.299Z,-4.90
2022-12-12T20:25:10.041Z,-4.90
2022-12-12T20:27:11.521Z,-4.91
2022-12-12T20:29:14.769Z,-4.93
2022-12-12T20:31:19.020Z,-4.96
2022-12-12T20:33:20.529Z,-4.98
2022-12-12T20:35:22.000Z,-4.99
2022-12-12T20:37:23.662Z,-4.99
2022-12-12T20:39:25.919Z,-5.02
2022-12-12T20:41:30.759Z,-5.04
2022-12-12T20:43:32.223Z,-5.06
2022-12-12T20:45:37.578Z,-5.07
2022-12-12T20:47:39.023Z,-5.07
2022-12-12T20:49:40.483Z,-5.08
2022-12-12T20:51:58.570Z,-5.07
2022-12-12T20:54:03.243Z,-5.08
2022-12-12T20:56:10.786Z,-5.07
2022-12-12T20:58:12.888Z,-5.08
2022-12-12T21:00:15.466Z,-5.07
2022-12-12T21:02:17.080Z,-5.06
2022-12-12T21:04:18.758Z,-5.05
2022-12-12T21:06:23.102Z,-5.05
2022-12-12T21:08:24.742Z,-5.06
2022-12-12T21:10:26.276Z,-5.07
2022-12-12T21:12:27.727Z,-5.08
2022-12-12T21:14:30.815Z,-5.09
2022-12-12T21:16:35.429Z,-5.08
2022-12-12T21:18:37.331Z,-5.11
2022-12-12T21:20:44.125Z,-5.12
2022-12-12T21:22:45.578Z,-5.13
2022-12-12T21:24:47.089Z,-5.13
2022-12-12T21:26:48.901Z,-5.13
2022-12-12T21:28:50.799Z,-5.15
2022-12-12T21:30:52.303Z,-5.14
2022-12-12T21:32:53.772Z,-5.18
2022-12-12T21:34:55.226Z,-5.23
2022-12-12T21:36:56.913Z,-5.24
2022-12-12T21:38:59.578Z,-5.25
2022-12-12T21:41:05.288Z,-5.24
2022-12-12T21:43:06.748Z,-5.24
2022-12-12T21:45:09.199Z,-5.25
2022-12-12T21:47:10.649Z,-5.25
2022-12-12T21:49:28.245Z,-5.26
2022-12-12T21:51:29.844Z,-5.29
2022-12-12T21:53:34.995Z,-5.29
2022-12-12T21:55:37.915Z,-5.30
2022-12-12T21:57:39.353Z,-5.31
2022-12-12T21:59:41.933Z,-5.35
2022-12-12T22:01:43.640Z,-5.34
2022-12-12T22:03:46.995Z,-5.35
2022-12-12T22:05:48.465Z,-5.35
2022-12-12T22:07:49.951Z,-5.34
2022-12-12T22:09:57.853Z,-5.37
2022-12-12T22:12:11.712Z,-5.38
2022-12-12T22:14:21.583Z,-5.39
2022-12-12T22:16:23.472Z,-5.40
2022-12-12T22:18:24.987Z,-5.39
2022-12-12T22:20:26.475Z,-5.38
2022-12-12T22:22:29.009Z,-5.39
2022-12-12T22:24:30.458Z,-5.37
2022-12-12T22:26:38.333Z,-5.35
2022-12-12T22:28:39.875Z,-5.35
2022-12-12T22:30:42.134Z,-5.33
2022-12-12T22:32:43.576Z,-5.32
2022-12-12T22:34:45.016Z,-5.31
2022-12-12T22:36:47.064Z,-5.31
2022-12-12T22:38:48.499Z,-5.31
2022-12-12T22:40:56.442Z,-5.29
2022-12-12T22:42:58.918Z,-5.28
2022-12-12T22:45:00.635Z,-5.28
2022-12-12T22:47:02.191Z,-5.28
2022-12-12T22:49:03.667Z,-5.29
2022-12-12T22:51:32.765Z,-5.32
2022-12-12T22:53:36.177Z,-5.34
2022-12-12T22:55:40.996Z,-5.34
2022-12-12T22:57:45.082Z,-5.35
2022-12-12T22:59:47.562Z,-5.38
2022-12-12T23:01:49.064Z,-5.38
2022-12-12T23:03:52.054Z,-5.41
2022-12-12T23:05:53.533Z,-5.44
2022-12-12T23:07:55.085Z,-5.44
2022-12-12T23:09:58.907Z,-5.48
2022-12-12T23:12:00.371Z,-5.54
2022-12-12T23:14:04.891Z,-5.54
2022-12-12T23:16:08.513Z,-5.57
2022-12-12T23:18:09.981Z,-5.58
2022-12-12T23:20:11.501Z,-5.57
2022-12-12T23:22:12.997Z,-5.58
2022-12-12T23:24:15.178Z,-5.59
2022-12-12T23:26:22.473Z,-5.60
2022-12-12T23:28:23.967Z,-5.63
2022-12-12T23:30:25.405Z,-5.65
2022-12-12T23:32:26.836Z,-5.66
2022-12-12T23:34:28.912Z,-5.65
2022-12-12T23:36:31.191Z,-5.68
2022-12-12T23:38:32.728Z,-5.69
2022-12-12T23:40:34.175Z,-5.68
2022-12-12T23:42:35.606Z,-5.67
2022-12-12T23:44:37.049Z,-5.66
2022-12-12T23:46:38.668Z,-5.66
2022-12-12T23:48:40.101Z,-5.65
2022-12-12T23:50:41.539Z,-5.64
2022-12-12T23:52:43.019Z,-5.65
2022-12-12T23:54:44.468Z,-5.67
2022-12-12T23:56:47.560Z,-5.67
2022-12-12T23:58:49.012Z,-5.68
